Roxana, IL (62084)

6:12 AM CDT on September 20, 2014 (GMT -0500)
Rosewood Heights | Change Station
CLOSE
Current Station
Personal Weather Station
Location: East Alton, IL
Elevation: 545 ft
Nearby Weather Stations

Elev 545 ft 38.88 °N, 90.07 °W | Updated 3 seconds ago

Clear
Clear
60.2 °F
Feels Like 60.2 °F
N
0.0
Wind Variable Wind from North
Gusts 0.0 mph

Today
High -- | Low -- °F
--% Chance of Precip.
Yesterday
High -- | Low -- °F
Precip. -- in
6:46 AM 7:00 PM
Waning Crescent, 13% visible
Pressure 30.01 in
Visibility 7.0 miles
Clouds Clear
Dew Point 58 °F
Humidity 92%
Rainfall 0.00 in
Snow Depth Not available.
UV 0 out of 12
Pollen 7.00 out of 12
Ozone Good
PM2.5 Unhealthy for Sensitive Groups
Flu Activity Not available.
METAR KALN 201055Z AUTO 00000KT 7SM CLR 15/14 A3001 RMK AO2 T01470140

More Conditions Fewer Conditions

Pressure 30.01 in
Visibility 7.0 miles
Clouds Clear
Dew Point 58 °F
Humidity 92%
Rainfall 0.00 in
Snow Depth Not available.
UV 0 out of 12
Pollen 7.00 out of 12
Ozone Good
PM2.5 Unhealthy for Sensitive Groups
Flu Activity Not available.
METAR KALN 201055Z AUTO 00000KT 7SM CLR 15/14 A3001 RMK AO2 T01470140

More Conditions Fewer Conditions

10-Day Weather Forecast

Almanac

Astronomy

Sep. 20, 2014 Rise Set
Actual Time 6:46 AM CDT 7:00 PM CDT
Civil Twilight 6:19 AM CDT 7:27 PM CDT
Nautical Twilight 5:48 AM CDT 7:58 PM CDT
Astronomical Twilight 5:16 AM CDT 8:29 PM CDT
Moon 3:27 AM CDT 5:02 PM CDT
Length of Visible Light 13h 07m
Length of Day
12h 14m
Tomorrow will be 2m 30s shorter.
Waning Crescent, 13% of the Moon is Illuminated
Today
Waning Crescent
Sep 24
New
Oct 1
First Quarter
Oct 8
Full
Oct 15
Last Quarter

Today's Extremes

State Highs State Lows

Community

WunderPhotos

Upload Photos

1,754,829 photos uploaded!

WunderBlogs® & News

Nearby

Air Quality

  Air Quality AQ Index Pollutant
Yesterday Moderate
PM2.5
Yesterday Good
OZONE
Current Unhealthy for Sensitive Groups
PM2.5
Current Good
OZONE
Saturday Moderate
PM2.5
Sunday Good
PM2.5
Monday Good
PM2.5
Tuesday Moderate
PM2.5

Snow Depth

Station Depth Elevation
No new snow has been reported.

Earthquake Activity

City Distance Mag. Time & Date
No recent earthquake activity has been reported nearby.
Minimum magnitude displayed is 2.5.

Coastal Water Temperatures

Place Temperature
No Stations Reporting

Nearby Weather Stations